Time;durP1;ratioP1;P1;durP2;ratioP2;P2;SDS_P1;SDS_P2;PMS_P1;PMS_P2;Temp;Humidity;BMP_temperature;BMP_pressure;BME280_temperature;BME280_humidity;BME280_pressure;Samples;Min_cycle;Max_cycle;Signal;HPM_P1;HPM_P2
2023/04/25 00:01:43;;;;;;;6.38;5.38;;;;;;;;;;4933601;29;20208;-65
2023/04/25 00:04:12;;;;;;;4.97;4.55;;;;;;;;;;4916895;29;20199;-65
2023/04/25 00:06:40;;;;;;;8.52;5.07;;;;;;;;;;4933801;29;20205;-65
2023/04/25 00:09:09;;;;;;;8.07;5.05;;;;;;;;;;4933999;29;20208;-64
2023/04/25 00:11:38;;;;;;;6.15;5.60;;;;;;;;;;4934782;29;20563;-65
2023/04/25 00:14:06;;;;;;;5.15;4.75;;;;;;;;;;4934518;29;20565;-65
2023/04/25 00:16:36;;;;;;;7.22;5.05;;;;;;;;;;4933841;29;20205;-65
2023/04/25 00:19:04;;;;;;;5.13;4.63;;;;;;;;;;4934667;29;20201;-65
2023/04/25 00:21:33;;;;;;;4.45;4.10;;;;;;;;;;4934542;29;20228;-65
2023/04/25 00:24:01;;;;;;;4.60;4.30;;;;;;;;;;4933933;29;20211;-65
2023/04/25 00:26:29;;;;;;;5.93;4.50;;;;;;;;;;4933471;29;20556;-64
2023/04/25 00:28:57;;;;;;;5.40;4.90;;;;;;;;;;4934222;29;20200;-65
2023/04/25 00:31:26;;;;;;;5.80;5.30;;;;;;;;;;4934142;29;20730;-65
2023/04/25 00:33:55;;;;;;;7.22;4.63;;;;;;;;;;4917085;29;20717;-65
2023/04/25 00:36:24;;;;;;;5.53;5.10;;;;;;;;;;4933912;29;20203;-65
2023/04/25 00:38:52;;;;;;;4.65;4.35;;;;;;;;;;4934339;29;20200;-65
2023/04/25 00:41:20;;;;;;;5.80;5.30;;;;;;;;;;4933732;29;20236;-65
2023/04/25 00:43:49;;;;;;;5.53;5.03;;;;;;;;;;4934547;29;20275;-65
2023/04/25 00:46:17;;;;;;;5.60;5.10;;;;;;;;;;4934244;29;20207;-65
2023/04/25 00:48:45;;;;;;;5.63;5.18;;;;;;;;;;4933890;29;20219;-65
2023/04/25 00:51:18;;;;;;;5.57;4.95;;;;;;;;;;4933638;29;20218;-65
2023/04/25 00:53:46;;;;;;;5.75;4.88;;;;;;;;;;4934224;29;20226;-65
2023/04/25 00:56:15;;;;;;;5.97;4.90;;;;;;;;;;4917136;29;20569;-65
2023/04/25 00:58:43;;;;;;;5.80;5.30;;;;;;;;;;4933886;29;20200;-65
2023/04/25 01:01:12;;;;;;;5.97;5.40;;;;;;;;;;4916304;29;20215;-64
2023/04/25 01:03:41;;;;;;;5.82;5.22;;;;;;;;;;4932669;29;20200;-65
2023/04/25 01:06:10;;;;;;;8.50;5.72;;;;;;;;;;4933479;29;20557;-65
2023/04/25 01:08:40;;;;;;;5.80;5.30;;;;;;;;;;4933907;29;20211;-65
2023/04/25 01:11:09;;;;;;;6.00;5.50;;;;;;;;;;4934229;29;20196;-65
2023/04/25 01:13:37;;;;;;;5.90;5.30;;;;;;;;;;4934015;29;20215;-65
2023/04/25 01:16:06;;;;;;;7.00;6.30;;;;;;;;;;4927763;29;20213;-65
2023/04/25 01:18:34;;;;;;;6.78;5.65;;;;;;;;;;4936376;29;20205;-65
2023/04/25 01:21:09;;;;;;;7.03;5.47;;;;;;;;;;4937451;29;20279;-65
2023/04/25 01:23:38;;;;;;;9.10;6.85;;;;;;;;;;4937744;29;20203;-65
2023/04/25 01:26:07;;;;;;;7.20;5.78;;;;;;;;;;4937301;29;20573;-65
2023/04/25 01:28:35;;;;;;;6.32;5.80;;;;;;;;;;4937658;29;20205;-65
2023/04/25 01:31:04;;;;;;;6.43;5.82;;;;;;;;;;4920031;29;20208;-65
2023/04/25 01:33:32;;;;;;;5.63;5.13;;;;;;;;;;4937581;29;20683;-65
2023/04/25 01:36:00;;;;;;;6.68;5.88;;;;;;;;;;4937041;29;20227;-65
2023/04/25 01:38:30;;;;;;;6.07;5.47;;;;;;;;;;4920575;29;20277;-65
2023/04/25 01:40:58;;;;;;;5.68;5.07;;;;;;;;;;4916611;29;20233;-65
2023/04/25 01:43:27;;;;;;;5.82;5.32;;;;;;;;;;4918205;29;20227;-66
2023/04/25 01:45:56;;;;;;;7.97;6.60;;;;;;;;;;4918179;29;20197;-65
2023/04/25 01:48:24;;;;;;;7.65;5.85;;;;;;;;;;4918170;29;20573;-65
2023/04/25 01:50:52;;;;;;;6.90;5.88;;;;;;;;;;4918306;29;20217;-65
2023/04/25 01:53:21;;;;;;;5.43;4.93;;;;;;;;;;4917804;29;20213;-65
2023/04/25 01:55:51;;;;;;;7.95;5.75;;;;;;;;;;4916585;29;20222;-65
2023/04/25 01:58:22;;;;;;;6.40;5.80;;;;;;;;;;4914944;29;20201;-65
2023/04/25 02:01:06;;;;;;;5.50;5.00;;;;;;;;;;4915968;29;20201;-65
2023/04/25 02:03:42;;;;;;;5.88;5.35;;;;;;;;;;4915512;29;20548;-65
2023/04/25 02:06:19;;;;;;;6.10;5.50;;;;;;;;;;4917134;29;20298;-65
2023/04/25 02:08:48;;;;;;;5.65;5.15;;;;;;;;;;4916725;29;20205;-65
2023/04/25 02:11:19;;;;;;;8.35;6.10;;;;;;;;;;4916798;29;20215;-65
2023/04/25 02:13:55;;;;;;;6.05;5.55;;;;;;;;;;4916413;29;20197;-65
2023/04/25 02:16:35;;;;;;;6.40;5.80;;;;;;;;;;4918156;29;20189;-65
2023/04/25 02:19:03;;;;;;;6.60;5.50;;;;;;;;;;4916250;29;20201;-63
2023/04/25 02:21:32;;;;;;;7.13;5.97;;;;;;;;;;4916501;29;20232;-64
2023/04/25 02:24:00;;;;;;;8.15;6.50;;;;;;;;;;4916476;29;20201;-64
2023/04/25 02:26:31;;;;;;;15.20;11.55;;;;;;;;;;4900676;29;20211;-64
2023/04/25 02:29:01;;;;;;;30.40;22.65;;;;;;;;;;4914379;29;20211;-64
2023/04/25 02:31:29;;;;;;;288.10;192.05;;;;;;;;;;4917142;29;20556;-64
2023/04/25 02:33:59;;;;;;;65.40;44.47;;;;;;;;;;4915816;29;20554;-64
2023/04/25 02:36:32;;;;;;;117.25;75.20;;;;;;;;;;4917313;29;20237;-64
2023/04/25 02:39:00;;;;;;;50.08;35.17;;;;;;;;;;4915513;29;20202;-64
2023/04/25 02:41:28;;;;;;;50.40;32.00;;;;;;;;;;4934534;29;20232;-63
2023/04/25 02:43:58;;;;;;;19.38;13.00;;;;;;;;;;4936174;29;20223;-64
2023/04/25 02:46:27;;;;;;;63.17;38.60;;;;;;;;;;4919195;29;20201;-64
2023/04/25 02:48:55;;;;;;;27.67;19.35;;;;;;;;;;4917518;29;20205;-63
2023/04/25 02:51:23;;;;;;;45.35;31.10;;;;;;;;;;4916823;29;20220;-64
2023/04/25 02:53:51;;;;;;;27.95;19.92;;;;;;;;;;4900941;29;20215;-64
2023/04/25 02:56:19;;;;;;;17.73;13.43;;;;;;;;;;4901433;29;20633;-64
2023/04/25 02:58:48;;;;;;;20.25;13.38;;;;;;;;;;4919143;29;20204;-64
2023/04/25 03:01:17;;;;;;;17.35;13.55;;;;;;;;;;4918453;29;20678;-64
2023/04/25 03:03:46;;;;;;;30.92;22.05;;;;;;;;;;4934457;29;20263;-64
2023/04/25 03:06:14;;;;;;;13.00;8.85;;;;;;;;;;4918670;29;20204;-64
2023/04/25 03:08:43;;;;;;;8.30;7.50;;;;;;;;;;4918549;29;20212;-64
2023/04/25 03:11:12;;;;;;;8.25;7.03;;;;;;;;;;4935881;29;20228;-64
2023/04/25 03:13:40;;;;;;;9.32;8.45;;;;;;;;;;4935158;29;20200;-64
2023/04/25 03:16:10;;;;;;;11.32;10.15;;;;;;;;;;4919113;29;20220;-64
2023/04/25 03:18:39;;;;;;;13.75;10.10;;;;;;;;;;4915527;29;20213;-64
2023/04/25 03:21:07;;;;;;;26.33;22.60;;;;;;;;;;4935772;29;20410;-64
2023/04/25 03:23:36;;;;;;;28.60;24.00;;;;;;;;;;4918349;29;20209;-64
2023/04/25 03:26:04;;;;;;;9.13;8.20;;;;;;;;;;4918492;29;20211;-64
2023/04/25 03:28:32;;;;;;;14.45;13.05;;;;;;;;;;4935027;29;20201;-64
2023/04/25 03:31:00;;;;;;;10.43;9.50;;;;;;;;;;4935215;29;20211;-64
2023/04/25 03:33:29;;;;;;;15.38;13.85;;;;;;;;;;4918063;29;20581;-64
2023/04/25 03:35:59;;;;;;;8.82;7.93;;;;;;;;;;4918345;29;20220;-64
2023/04/25 03:38:29;;;;;;;9.63;8.23;;;;;;;;;;4917857;29;20208;-64
2023/04/25 03:40:57;;;;;;;9.13;8.15;;;;;;;;;;4916933;29;20236;-64
2023/04/25 03:43:34;;;;;;;12.55;8.43;;;;;;;;;;4934918;29;20200;-64
2023/04/25 03:46:06;;;;;;;9.43;8.38;;;;;;;;;;4918396;29;20575;-64
2023/04/25 03:48:35;;;;;;;11.55;8.95;;;;;;;;;;4934679;29;20207;-64
2023/04/25 03:51:04;;;;;;;10.32;8.75;;;;;;;;;;4917900;29;20217;-64
2023/04/25 03:53:35;;;;;;;8.10;6.90;;;;;;;;;;4917618;29;20189;-64
2023/04/25 03:56:35;;;;;;;7.85;7.05;;;;;;;;;;4934592;29;20243;-64
2023/04/25 03:59:12;;;;;;;7.50;6.80;;;;;;;;;;4918102;29;20204;-63
2023/04/25 04:01:41;;;;;;;8.88;7.95;;;;;;;;;;4917523;29;20204;-63
2023/04/25 04:04:09;;;;;;;8.25;6.80;;;;;;;;;;4916915;29;20215;-63
2023/04/25 04:06:39;;;;;;;8.40;7.35;;;;;;;;;;4917651;29;20660;-63
2023/04/25 04:09:15;;;;;;;9.00;8.10;;;;;;;;;;4917607;29;20196;-64
2023/04/25 04:11:45;;;;;;;8.60;6.75;;;;;;;;;;4918024;29;20196;-65
2023/04/25 04:14:13;;;;;;;9.18;7.80;;;;;;;;;;4917354;29;20266;-65
2023/04/25 04:16:45;;;;;;;7.03;6.40;;;;;;;;;;4917794;29;20232;-65
2023/04/25 04:19:14;;;;;;;8.50;7.68;;;;;;;;;;4917212;29;20209;-63
2023/04/25 04:21:49;;;;;;;8.13;6.88;;;;;;;;;;4917884;29;20196;-65
2023/04/25 04:24:18;;;;;;;7.97;7.28;;;;;;;;;;4916811;29;20201;-65
2023/04/25 04:27:01;;;;;;;7.25;6.63;;;;;;;;;;4915800;29;20189;-65
2023/04/25 04:29:38;;;;;;;8.75;7.95;;;;;;;;;;4934019;29;20201;-65
2023/04/25 04:32:34;;;;;;;7.15;6.45;;;;;;;;;;4930864;29;20209;-65
2023/04/25 04:35:04;;;;;;;7.40;6.70;;;;;;;;;;4917401;29;20204;-65
2023/04/25 04:37:33;;;;;;;7.05;6.40;;;;;;;;;;4915955;29;20655;-64
2023/04/25 04:40:05;;;;;;;7.50;6.78;;;;;;;;;;4917318;29;20583;-64
2023/04/25 04:43:03;;;;;;;7.55;6.93;;;;;;;;;;4921159;29;20210;-64
2023/04/25 04:45:49;;;;;;;8.93;7.43;;;;;;;;;;4917097;29;20197;-64
2023/04/25 04:48:34;;;;;;;8.18;7.40;;;;;;;;;;4934100;29;20197;-65
2023/04/25 04:51:20;;;;;;;8.60;7.60;;;;;;;;;;4901420;29;20199;-65
2023/04/25 04:54:28;;;;;;;10.45;6.50;;;;;;;;;;4872799;29;20215;-65
2023/04/25 04:57:30;;;;;;;7.28;6.07;;;;;;;;;;4836254;29;20238;-65
2023/04/25 05:00:20;;;;;;;7.15;6.45;;;;;;;;;;4916157;29;20664;-65
2023/04/25 05:03:14;;;;;;;7.85;7.13;;;;;;;;;;4903943;29;20219;-65
2023/04/25 05:05:53;;;;;;;7.78;6.93;;;;;;;;;;4932291;29;20196;-65
2023/04/25 05:08:42;;;;;;;8.35;6.97;;;;;;;;;;4916628;29;20275;-65
2023/04/25 05:11:18;;;;;;;6.65;6.05;;;;;;;;;;4915158;29;20188;-65
2023/04/25 05:13:59;;;;;;;7.05;6.35;;;;;;;;;;4913852;29;20197;-65
2023/04/25 05:16:46;;;;;;;6.30;5.75;;;;;;;;;;4931775;29;20564;-65
2023/04/25 05:19:33;;;;;;;7.30;6.60;;;;;;;;;;4911611;29;20199;-65
2023/04/25 05:22:20;;;;;;;8.18;6.72;;;;;;;;;;4915317;29;20215;-65
2023/04/25 05:25:07;;;;;;;7.80;7.00;;;;;;;;;;4929797;29;20225;-65
2023/04/25 05:27:58;;;;;;;7.50;6.70;;;;;;;;;;4891616;29;20219;-65
2023/04/25 05:30:49;;;;;;;8.55;7.60;;;;;;;;;;4914946;29;20200;-66
2023/04/25 05:33:30;;;;;;;8.77;7.05;;;;;;;;;;4916895;29;20189;-64
2023/04/25 05:35:58;;;;;;;6.43;5.82;;;;;;;;;;4915996;29;20235;-64
2023/04/25 05:38:28;;;;;;;7.97;7.28;;;;;;;;;;4916429;29;20209;-64
2023/04/25 05:41:15;;;;;;;7.55;6.53;;;;;;;;;;4932651;29;20240;-65
2023/04/25 05:44:00;;;;;;;6.47;5.82;;;;;;;;;;4916388;29;20196;-65
2023/04/25 05:46:40;;;;;;;7.07;5.55;;;;;;;;;;4914187;29;20185;-65
2023/04/25 05:49:11;;;;;;;7.10;5.93;;;;;;;;;;4932450;29;20715;-64
2023/04/25 05:52:00;;;;;;;8.30;7.50;;;;;;;;;;4928378;29;20197;-65
2023/04/25 05:54:44;;;;;;;7.55;6.85;;;;;;;;;;4911359;29;20807;-66
2023/04/25 05:57:20;;;;;;;7.85;7.15;;;;;;;;;;4925293;29;20323;-68
2023/04/25 05:59:50;;;;;;;8.07;7.03;;;;;;;;;;4916922;29;20203;-66
2023/04/25 06:02:19;;;;;;;7.72;6.72;;;;;;;;;;4916280;29;20219;-66
2023/04/25 06:04:47;;;;;;;7.75;6.82;;;;;;;;;;4918804;29;20671;-66
2023/04/25 06:07:17;;;;;;;8.68;7.35;;;;;;;;;;4919630;29;20681;-66
2023/04/25 06:09:45;;;;;;;8.75;7.85;;;;;;;;;;4936430;29;20213;-65
2023/04/25 06:12:14;;;;;;;9.30;8.05;;;;;;;;;;4936970;29;20208;-65
2023/04/25 06:14:42;;;;;;;11.85;7.85;;;;;;;;;;4935828;29;20686;-67
2023/04/25 06:17:11;;;;;;;9.43;8.45;;;;;;;;;;4934324;29;20231;-65
2023/04/25 06:19:40;;;;;;;14.13;8.18;;;;;;;;;;4934629;29;20257;-65
2023/04/25 06:22:09;;;;;;;11.30;8.70;;;;;;;;;;4918221;29;20204;-66
2023/04/25 06:24:40;;;;;;;9.68;8.60;;;;;;;;;;4917981;29;20209;-66
2023/04/25 06:27:09;;;;;;;9.43;8.50;;;;;;;;;;4918781;29;20207;-67
2023/04/25 06:29:37;;;;;;;9.25;8.35;;;;;;;;;;4935040;29;20222;-66
2023/04/25 06:32:06;;;;;;;10.45;9.35;;;;;;;;;;4918074;29;20565;-66
2023/04/25 06:34:35;;;;;;;9.95;8.95;;;;;;;;;;4918668;29;20652;-66
2023/04/25 06:37:04;;;;;;;11.00;9.90;;;;;;;;;;4918891;29;20228;-66
2023/04/25 06:39:32;;;;;;;10.82;9.32;;;;;;;;;;4918056;29;20585;-66
2023/04/25 06:42:00;;;;;;;10.45;9.35;;;;;;;;;;4935296;29;20209;-66
2023/04/25 06:44:47;;;;;;;10.20;8.98;;;;;;;;;;4936357;29;20247;-66
2023/04/25 06:47:16;;;;;;;10.65;9.23;;;;;;;;;;4918625;29;20200;-67
2023/04/25 06:49:46;;;;;;;11.35;9.57;;;;;;;;;;4918694;29;20559;-67
2023/04/25 06:52:14;;;;;;;12.30;11.00;;;;;;;;;;4919058;29;20881;-66
2023/04/25 06:54:43;;;;;;;14.25;10.82;;;;;;;;;;4918177;29;20655;-66
2023/04/25 06:57:32;;;;;;;10.35;9.35;;;;;;;;;;4903115;29;20280;-67
2023/04/25 07:00:12;;;;;;;13.32;10.13;;;;;;;;;;4917201;29;20191;-67
2023/04/25 07:02:42;;;;;;;16.23;13.90;;;;;;;;;;4913818;29;20622;-67
2023/04/25 07:05:11;;;;;;;12.65;11.38;;;;;;;;;;4917451;29;20205;-67
2023/04/25 07:07:40;;;;;;;11.10;10.00;;;;;;;;;;4934964;29;20248;-67
2023/04/25 07:10:08;;;;;;;11.98;10.63;;;;;;;;;;4935047;29;20243;-68
2023/04/25 07:12:36;;;;;;;17.02;12.85;;;;;;;;;;4934902;29;20678;-64
2023/04/25 07:15:07;;;;;;;12.07;10.82;;;;;;;;;;4916122;29;20211;-63
2023/04/25 07:17:37;;;;;;;14.50;11.70;;;;;;;;;;4919124;29;20213;-63
2023/04/25 07:20:08;;;;;;;12.48;11.18;;;;;;;;;;4919140;29;20231;-68
2023/04/25 07:22:38;;;;;;;16.08;12.27;;;;;;;;;;4918585;29;20197;-68
2023/04/25 07:25:08;;;;;;;13.55;11.98;;;;;;;;;;4917472;29;20205;-67
2023/04/25 07:27:36;;;;;;;13.50;12.10;;;;;;;;;;4935638;29;20219;-67
2023/04/25 07:30:13;;;;;;;13.43;11.32;;;;;;;;;;4904202;29;20232;-66
2023/04/25 07:32:41;;;;;;;16.98;12.50;;;;;;;;;;4918564;29;20203;-66
2023/04/25 07:35:10;;;;;;;14.05;11.32;;;;;;;;;;4935060;29;20209;-66
2023/04/25 07:37:40;;;;;;;12.73;10.60;;;;;;;;;;4935404;29;20263;-66
2023/04/25 07:40:13;;;;;;;12.98;11.60;;;;;;;;;;4934430;29;20243;-66
2023/04/25 07:42:46;;;;;;;12.88;11.52;;;;;;;;;;4918015;29;20270;-66
2023/04/25 07:45:19;;;;;;;13.50;11.02;;;;;;;;;;4917471;29;20209;-67
2023/04/25 07:47:48;;;;;;;14.15;11.65;;;;;;;;;;4917964;29;20201;-66
2023/04/25 07:50:16;;;;;;;12.70;10.73;;;;;;;;;;4917705;29;20199;-67
2023/04/25 07:52:47;;;;;;;12.30;10.95;;;;;;;;;;4918111;29;20214;-66
2023/04/25 07:55:23;;;;;;;16.00;12.85;;;;;;;;;;4914464;29;20204;-69
2023/04/25 07:58:09;;;;;;;17.70;12.25;;;;;;;;;;4914159;29;20310;-68
2023/04/25 08:00:39;;;;;;;14.95;12.60;;;;;;;;;;4916395;29;20259;-69
2023/04/25 08:03:40;;;;;;;16.15;13.65;;;;;;;;;;4912778;29;20204;-69
2023/04/25 08:06:15;;;;;;;15.40;11.48;;;;;;;;;;4901211;29;20274;-67
2023/04/25 08:09:05;;;;;;;13.55;11.88;;;;;;;;;;4916862;29;20279;-67
2023/04/25 08:11:39;;;;;;;13.13;11.68;;;;;;;;;;4917079;29;20281;-67
2023/04/25 08:14:09;;;;;;;14.75;12.80;;;;;;;;;;4923333;29;20658;-67
2023/04/25 08:16:39;;;;;;;15.27;11.02;;;;;;;;;;4917730;29;20554;-67
2023/04/25 08:19:08;;;;;;;12.43;11.23;;;;;;;;;;4933673;29;20274;-66
2023/04/25 08:21:37;;;;;;;13.80;12.30;;;;;;;;;;4916866;29;20229;-68
2023/04/25 08:24:11;;;;;;;13.40;12.00;;;;;;;;;;4916666;29;21052;-68
2023/04/25 08:26:41;;;;;;;17.15;13.90;;;;;;;;;;4917083;29;20558;-69
2023/04/25 08:29:12;;;;;;;14.95;13.00;;;;;;;;;;4933472;29;20211;-67
2023/04/25 08:31:42;;;;;;;15.07;12.45;;;;;;;;;;4917828;29;20197;-64
2023/04/25 08:34:11;;;;;;;12.65;11.02;;;;;;;;;;4918710;29;20209;-67
2023/04/25 08:36:45;;;;;;;15.07;11.13;;;;;;;;;;4917659;29;20193;-68
2023/04/25 08:39:24;;;;;;;14.60;11.63;;;;;;;;;;4916452;29;20597;-69
2023/04/25 08:42:20;;;;;;;13.75;11.93;;;;;;;;;;4911943;29;20262;-69
2023/04/25 08:44:49;;;;;;;13.05;11.55;;;;;;;;;;4934267;29;20208;-68
2023/04/25 08:47:20;;;;;;;14.40;12.27;;;;;;;;;;4916065;29;20216;-68
2023/04/25 08:49:55;;;;;;;14.82;11.60;;;;;;;;;;4917231;29;20569;-68
2023/04/25 08:52:24;;;;;;;17.33;12.02;;;;;;;;;;4916345;29;20192;-64
2023/04/25 08:54:56;;;;;;;17.42;12.57;;;;;;;;;;4916783;29;20263;-67
2023/04/25 08:57:25;;;;;;;14.98;11.95;;;;;;;;;;4917467;29;20211;-68
2023/04/25 08:59:53;;;;;;;17.17;11.52;;;;;;;;;;4933864;29;20235;-68
2023/04/25 09:02:23;;;;;;;19.35;13.95;;;;;;;;;;4916026;29;20232;-66
2023/04/25 09:04:54;;;;;;;17.90;15.95;;;;;;;;;;4916567;29;20789;-66
2023/04/25 09:07:22;;;;;;;22.38;14.18;;;;;;;;;;4917032;29;20212;-65
2023/04/25 09:09:52;;;;;;;23.20;15.70;;;;;;;;;;4917209;29;20208;-69
2023/04/25 09:12:25;;;;;;;23.13;15.45;;;;;;;;;;4916303;29;20197;-66
2023/04/25 09:15:07;;;;;;;18.08;14.77;;;;;;;;;;4916737;29;20200;-66
2023/04/25 09:18:05;;;;;;;17.65;12.77;;;;;;;;;;4925288;29;20590;-65
2023/04/25 09:20:43;;;;;;;20.95;14.80;;;;;;;;;;4911810;29;21288;-67
2023/04/25 09:23:12;;;;;;;15.65;11.52;;;;;;;;;;4929064;29;20742;-67
2023/04/25 09:25:42;;;;;;;15.88;11.15;;;;;;;;;;4917140;29;20221;-66
2023/04/25 09:28:13;;;;;;;18.17;10.60;;;;;;;;;;4911671;29;20676;-68
2023/04/25 09:30:41;;;;;;;17.20;11.55;;;;;;;;;;4931748;29;21333;-67
2023/04/25 09:33:29;;;;;;;13.80;10.30;;;;;;;;;;4912789;29;20649;-69
2023/04/25 09:36:03;;;;;;;12.73;8.95;;;;;;;;;;4920282;29;20188;-66
2023/04/25 09:38:45;;;;;;;35.28;20.90;;;;;;;;;;4917189;29;20698;-67
2023/04/25 09:41:25;;;;;;;15.38;10.00;;;;;;;;;;4919410;29;20240;-67
2023/04/25 09:43:58;;;;;;;12.95;9.32;;;;;;;;;;4919491;29;20188;-68
2023/04/25 09:46:34;;;;;;;14.25;10.38;;;;;;;;;;4903816;29;20204;-67
2023/04/25 09:49:07;;;;;;;12.98;9.95;;;;;;;;;;4919924;29;20652;-67
2023/04/25 09:51:55;;;;;;;13.20;10.02;;;;;;;;;;4896761;29;20207;-66
2023/04/25 09:54:24;;;;;;;18.38;10.60;;;;;;;;;;4912753;29;20192;-64
2023/04/25 09:57:04;;;;;;;16.75;10.25;;;;;;;;;;4917424;29;20200;-68
2023/04/25 09:59:35;;;;;;;12.55;9.90;;;;;;;;;;4912206;29;20217;-66
2023/04/25 10:02:04;;;;;;;12.00;9.13;;;;;;;;;;4933962;29;20204;-69
2023/04/25 10:04:39;;;;;;;15.98;10.98;;;;;;;;;;4918726;29;20207;-69
2023/04/25 10:07:14;;;;;;;17.42;11.38;;;;;;;;;;4933744;29;20193;-67
2023/04/25 10:09:49;;;;;;;15.05;9.98;;;;;;;;;;4934666;29;20189;-67
2023/04/25 10:12:18;;;;;;;13.85;10.25;;;;;;;;;;4935134;29;20309;-68
2023/04/25 10:14:48;;;;;;;15.95;10.98;;;;;;;;;;4933640;29;20791;-67
2023/04/25 10:17:16;;;;;;;15.65;9.80;;;;;;;;;;4933806;29;20641;-67
2023/04/25 10:19:47;;;;;;;19.05;11.00;;;;;;;;;;4934142;29;20231;-66
2023/04/25 10:22:18;;;;;;;13.13;9.70;;;;;;;;;;4935944;29;20586;-66
2023/04/25 10:24:47;;;;;;;13.00;8.52;;;;;;;;;;4936539;29;20189;-65
2023/04/25 10:27:16;;;;;;;15.02;8.95;;;;;;;;;;4935700;29;20204;-67
2023/04/25 10:29:44;;;;;;;16.88;8.85;;;;;;;;;;4936224;29;20586;-66
2023/04/25 10:32:14;;;;;;;11.80;8.45;;;;;;;;;;4935831;29;20209;-68
2023/04/25 10:34:43;;;;;;;11.77;8.85;;;;;;;;;;4934697;29;20663;-66
2023/04/25 10:37:12;;;;;;;16.20;8.90;;;;;;;;;;4935241;29;20212;-65
2023/04/25 10:39:41;;;;;;;16.17;9.80;;;;;;;;;;4935234;29;20241;-65
2023/04/25 10:42:09;;;;;;;15.13;10.63;;;;;;;;;;4934770;29;20548;-65
2023/04/25 10:44:39;;;;;;;17.58;9.50;;;;;;;;;;4935563;29;20215;-65
2023/04/25 10:47:09;;;;;;;16.13;9.75;;;;;;;;;;4917931;29;20263;-65
2023/04/25 10:49:39;;;;;;;15.38;8.18;;;;;;;;;;4915916;29;20215;-65
2023/04/25 10:52:14;;;;;;;16.65;10.27;;;;;;;;;;4932701;29;20197;-65
2023/04/25 10:54:43;;;;;;;19.25;9.88;;;;;;;;;;4935501;29;20192;-65
2023/04/25 10:57:30;;;;;;;17.48;10.13;;;;;;;;;;4934391;29;20206;-65
2023/04/25 11:00:10;;;;;;;10.98;8.63;;;;;;;;;;4932039;29;20220;-64
2023/04/25 11:02:39;;;;;;;17.67;8.55;;;;;;;;;;4930623;29;20247;-65
2023/04/25 11:05:10;;;;;;;15.65;10.10;;;;;;;;;;4931839;29;20694;-66
2023/04/25 11:07:46;;;;;;;12.13;8.60;;;;;;;;;;4928118;29;20236;-66
2023/04/25 11:10:15;;;;;;;13.13;7.97;;;;;;;;;;4931460;29;20193;-66
2023/04/25 11:12:43;;;;;;;9.25;6.05;;;;;;;;;;4930423;29;20682;-67
2023/04/25 11:15:12;;;;;;;8.75;7.50;;;;;;;;;;4932015;29;20208;-67
2023/04/25 11:17:41;;;;;;;10.02;7.82;;;;;;;;;;4932417;29;20193;-67
2023/04/25 11:20:14;;;;;;;9.68;8.55;;;;;;;;;;4932695;29;20228;-68
2023/04/25 11:22:43;;;;;;;9.15;7.13;;;;;;;;;;4933879;29;20207;-69
2023/04/25 11:25:12;;;;;;;7.70;6.22;;;;;;;;;;4932383;29;20205;-68
2023/04/25 11:27:51;;;;;;;9.98;7.70;;;;;;;;;;4933040;29;20208;-69
2023/04/25 11:30:19;;;;;;;8.18;7.00;;;;;;;;;;4931083;29;20941;-68
2023/04/25 11:32:47;;;;;;;4.45;4.05;;;;;;;;;;4913231;29;20210;-66
2023/04/25 11:35:17;;;;;;;5.47;4.97;;;;;;;;;;4934063;29;20223;-67
2023/04/25 11:37:46;;;;;;;6.68;6.07;;;;;;;;;;4935176;29;20211;-69
2023/04/25 11:40:15;;;;;;;7.65;5.28;;;;;;;;;;4933250;29;20244;-69
2023/04/25 11:42:45;;;;;;;5.95;3.78;;;;;;;;;;4934383;29;20208;-68
2023/04/25 11:45:14;;;;;;;3.35;3.15;;;;;;;;;;4929411;29;20209;-66
2023/04/25 11:47:42;;;;;;;4.93;4.53;;;;;;;;;;4934658;29;20600;-67
2023/04/25 11:50:11;;;;;;;3.47;3.17;;;;;;;;;;4933448;29;20223;-67
2023/04/25 11:52:41;;;;;;;2.80;2.60;;;;;;;;;;4934984;29;20255;-66
2023/04/25 11:55:10;;;;;;;2.55;2.45;;;;;;;;;;4933881;29;20613;-66
2023/04/25 11:57:39;;;;;;;2.30;2.20;;;;;;;;;;4930520;29;20204;-66
2023/04/25 12:00:12;;;;;;;2.20;2.10;;;;;;;;;;4924244;29;20225;-66
2023/04/25 12:02:45;;;;;;;2.80;2.40;;;;;;;;;;4944089;29;20221;-65
2023/04/25 12:05:15;;;;;;;2.28;2.17;;;;;;;;;;4949477;29;20230;-64
2023/04/25 12:07:44;;;;;;;3.45;3.25;;;;;;;;;;4938117;29;20213;-67
2023/04/25 12:10:14;;;;;;;3.33;3.10;;;;;;;;;;4933710;29;20219;-65
2023/04/25 12:12:43;;;;;;;3.57;3.37;;;;;;;;;;4934031;29;20220;-67
2023/04/25 12:15:14;;;;;;;4.40;3.97;;;;;;;;;;4901008;29;20615;-67
2023/04/25 12:17:43;;;;;;;3.87;3.63;;;;;;;;;;4924216;29;20597;-65
2023/04/25 12:20:11;;;;;;;5.20;4.60;;;;;;;;;;4932554;29;20661;-64
2023/04/25 12:22:44;;;;;;;3.13;2.93;;;;;;;;;;4932727;29;20625;-64
2023/04/25 12:25:14;;;;;;;4.63;4.33;;;;;;;;;;4933990;29;20974;-64
2023/04/25 12:27:43;;;;;;;6.50;6.10;;;;;;;;;;4934558;29;20639;-64
2023/04/25 12:30:12;;;;;;;7.00;6.37;;;;;;;;;;4934104;29;21053;-64
2023/04/25 12:32:40;;;;;;;7.67;7.37;;;;;;;;;;4917806;29;20631;-64
2023/04/25 12:35:08;;;;;;;8.03;7.77;;;;;;;;;;4915770;29;21191;-65
2023/04/25 12:37:37;;;;;;;8.17;7.87;;;;;;;;;;4934084;29;20628;-64
2023/04/25 12:40:06;;;;;;;8.43;7.93;;;;;;;;;;4934797;29;20676;-64
2023/04/25 12:42:36;;;;;;;8.50;8.10;;;;;;;;;;4934484;29;20614;-64
2023/04/25 12:45:04;;;;;;;9.17;8.77;;;;;;;;;;4934733;29;20692;-65
2023/04/25 12:47:35;;;;;;;7.90;7.50;;;;;;;;;;4932673;29;20604;-64
2023/04/25 12:50:03;;;;;;;9.17;8.47;;;;;;;;;;4917788;29;20628;-64
2023/04/25 12:52:31;;;;;;;8.37;8.00;;;;;;;;;;4934223;29;20670;-63
2023/04/25 12:54:59;;;;;;;7.57;7.17;;;;;;;;;;4935180;29;20643;-64
2023/04/25 12:57:28;;;;;;;8.00;7.40;;;;;;;;;;4934650;29;21165;-64
2023/04/25 12:59:57;;;;;;;6.83;6.43;;;;;;;;;;4935172;29;20645;-64
2023/04/25 13:02:25;;;;;;;8.00;7.40;;;;;;;;;;4933185;29;20650;-64
2023/04/25 13:04:53;;;;;;;7.50;6.93;;;;;;;;;;4934876;29;20610;-64
2023/04/25 13:07:22;;;;;;;6.80;6.30;;;;;;;;;;4934826;29;20603;-68
2023/04/25 13:09:50;;;;;;;8.30;7.80;;;;;;;;;;4939362;29;20628;-64
2023/04/25 13:12:18;;;;;;;5.80;5.50;;;;;;;;;;4933177;29;20209;-63
2023/04/25 13:14:46;;;;;;;6.90;6.40;;;;;;;;;;4939555;29;20633;-64
2023/04/25 13:17:16;;;;;;;7.50;6.00;;;;;;;;;;4939568;29;20730;-65
2023/04/25 13:19:45;;;;;;;6.28;5.75;;;;;;;;;;4936484;29;20250;-63
2023/04/25 13:22:15;;;;;;;6.78;6.18;;;;;;;;;;4939217;29;20263;-65
2023/04/25 13:24:43;;;;;;;8.77;6.45;;;;;;;;;;4937125;29;20208;-64
2023/04/25 13:27:11;;;;;;;7.27;5.57;;;;;;;;;;4936893;29;20200;-64
2023/04/25 13:29:40;;;;;;;7.22;6.10;;;;;;;;;;4937618;29;20632;-64
2023/04/25 13:32:09;;;;;;;6.80;6.20;;;;;;;;;;4937386;29;20235;-64
2023/04/25 13:34:39;;;;;;;7.23;6.60;;;;;;;;;;4938993;29;20607;-64
2023/04/25 13:37:07;;;;;;;7.13;5.80;;;;;;;;;;4920159;29;20588;-64
2023/04/25 13:39:35;;;;;;;6.53;6.03;;;;;;;;;;4929720;29;20701;-64
2023/04/25 13:42:03;;;;;;;6.90;5.80;;;;;;;;;;4936319;29;20583;-64
2023/04/25 13:44:32;;;;;;;6.40;5.90;;;;;;;;;;4937074;29;21176;-64
2023/04/25 13:47:00;;;;;;;6.15;5.75;;;;;;;;;;4938844;29;20618;-65
2023/04/25 13:49:28;;;;;;;6.00;5.45;;;;;;;;;;4918287;29;20208;-66
2023/04/25 13:51:58;;;;;;;5.70;5.20;;;;;;;;;;4937490;29;20201;-65
2023/04/25 13:54:26;;;;;;;6.55;5.65;;;;;;;;;;4936469;29;20218;-66
2023/04/25 13:56:58;;;;;;;7.00;6.20;;;;;;;;;;4936315;29;20207;-66
2023/04/25 13:59:27;;;;;;;5.57;5.07;;;;;;;;;;4935556;29;20200;-67
2023/04/25 14:01:55;;;;;;;6.20;5.15;;;;;;;;;;4920247;29;20599;-66
2023/04/25 14:04:23;;;;;;;9.55;5.53;;;;;;;;;;4938687;29;20200;-67
2023/04/25 14:06:52;;;;;;;7.70;6.30;;;;;;;;;;4935745;29;20574;-70
2023/04/25 14:09:25;;;;;;;5.28;4.88;;;;;;;;;;4934580;29;20610;-67
2023/04/25 14:11:53;;;;;;;5.43;4.65;;;;;;;;;;4934836;29;20302;-66
2023/04/25 14:14:22;;;;;;;5.43;5.03;;;;;;;;;;4918197;29;20217;-68
2023/04/25 14:16:51;;;;;;;4.70;4.30;;;;;;;;;;4933754;29;20247;-67
2023/04/25 14:19:20;;;;;;;8.35;4.30;;;;;;;;;;4933492;29;20211;-65
2023/04/25 14:21:48;;;;;;;7.40;5.32;;;;;;;;;;4935039;29;20220;-65
2023/04/25 14:24:16;;;;;;;5.93;4.75;;;;;;;;;;4935266;29;20671;-67
2023/04/25 14:26:46;;;;;;;4.75;4.35;;;;;;;;;;4934788;29;20205;-67
2023/04/25 14:29:14;;;;;;;4.78;4.30;;;;;;;;;;4918704;29;20574;-67
2023/04/25 14:31:43;;;;;;;6.37;4.73;;;;;;;;;;4935123;29;20570;-67
2023/04/25 14:34:11;;;;;;;5.22;4.82;;;;;;;;;;4935415;29;20661;-65
2023/04/25 14:36:40;;;;;;;5.25;4.75;;;;;;;;;;4934302;29;20568;-67
2023/04/25 14:39:08;;;;;;;6.07;5.63;;;;;;;;;;4934795;29;20209;-68
2023/04/25 14:41:37;;;;;;;7.03;4.63;;;;;;;;;;4934976;29;20236;-68
2023/04/25 14:44:07;;;;;;;5.72;4.82;;;;;;;;;;4935445;29;20219;-69
2023/04/25 14:46:35;;;;;;;6.80;5.45;;;;;;;;;;4931681;29;20213;-70
2023/04/25 14:49:04;;;;;;;8.65;6.25;;;;;;;;;;4930310;29;20626;-69
2023/04/25 14:51:32;;;;;;;8.95;6.15;;;;;;;;;;4935494;29;20209;-67
2023/04/25 14:54:00;;;;;;;11.18;7.47;;;;;;;;;;4934099;29;20209;-67
2023/04/25 14:56:29;;;;;;;17.35;6.93;;;;;;;;;;4934350;29;20208;-68
2023/04/25 14:58:57;;;;;;;7.88;7.18;;;;;;;;;;4934103;29;20259;-69
2023/04/25 15:01:27;;;;;;;8.57;7.70;;;;;;;;;;4915298;29;20255;-68